Time;durP1;ratioP1;P1;durP2;ratioP2;P2;SDS_P1;SDS_P2;PMS_P1;PMS_P2;Temp;Humidity;BMP_temperature;BMP_pressure;BME280_temperature;BME280_humidity;BME280_pressure;Samples;Min_cycle;Max_cycle;Signal;HPM_P1;HPM_P2
2022/07/25 00:00:06;;;;;;;3.75;3.33;;;;;;;;;;5042825;28;20080;-68
2022/07/25 00:02:33;;;;;;;4.72;3.90;;;;;;;;;;5034270;28;20124;-68
2022/07/25 00:04:59;;;;;;;4.70;3.85;;;;;;;;;;5042863;28;20052;-68
2022/07/25 00:07:26;;;;;;;4.28;3.53;;;;;;;;;;5041568;28;20609;-67
2022/07/25 00:09:52;;;;;;;4.30;3.58;;;;;;;;;;5033530;28;20041;-68
2022/07/25 00:12:18;;;;;;;5.43;3.50;;;;;;;;;;5034124;28;20052;-68
2022/07/25 00:14:44;;;;;;;3.72;3.33;;;;;;;;;;5037675;28;20434;-68
2022/07/25 00:17:10;;;;;;;3.53;3.28;;;;;;;;;;5032248;28;20485;-68
2022/07/25 00:19:37;;;;;;;4.07;3.35;;;;;;;;;;5047272;28;20053;-68
2022/07/25 00:22:03;;;;;;;4.88;3.38;;;;;;;;;;5040780;28;20049;-68
2022/07/25 00:24:29;;;;;;;3.38;3.08;;;;;;;;;;5041001;28;20043;-68
2022/07/25 00:26:55;;;;;;;3.72;3.38;;;;;;;;;;5031384;28;20046;-68
2022/07/25 00:29:21;;;;;;;3.53;3.22;;;;;;;;;;5033372;28;20099;-68
2022/07/25 00:31:47;;;;;;;3.70;3.00;;;;;;;;;;5035708;28;20041;-68
2022/07/25 00:34:13;;;;;;;3.42;3.15;;;;;;;;;;5037646;28;20099;-68
2022/07/25 00:36:39;;;;;;;3.28;3.08;;;;;;;;;;5031579;28;20060;-68
2022/07/25 00:39:05;;;;;;;3.45;3.15;;;;;;;;;;5042022;28;20037;-68
2022/07/25 00:41:31;;;;;;;3.95;3.17;;;;;;;;;;5051693;28;20528;-68
2022/07/25 00:43:57;;;;;;;3.10;2.90;;;;;;;;;;5050931;28;20477;-68
2022/07/25 00:46:23;;;;;;;4.03;3.53;;;;;;;;;;5052914;28;20045;-68
2022/07/25 00:48:49;;;;;;;3.55;3.25;;;;;;;;;;5044679;28;20044;-68
2022/07/25 00:51:15;;;;;;;3.58;3.28;;;;;;;;;;5032518;28;20041;-68
2022/07/25 00:53:42;;;;;;;4.22;3.83;;;;;;;;;;5037527;28;20052;-68
2022/07/25 00:56:08;;;;;;;4.20;3.80;;;;;;;;;;5037972;28;20057;-68
2022/07/25 00:58:34;;;;;;;5.32;3.70;;;;;;;;;;5043353;28;20409;-68
2022/07/25 01:01:01;;;;;;;4.05;3.67;;;;;;;;;;5030643;28;20561;-68
2022/07/25 01:03:27;;;;;;;4.15;3.75;;;;;;;;;;5030996;28;20551;-68
2022/07/25 01:05:54;;;;;;;4.10;3.70;;;;;;;;;;5031224;28;20042;-68
2022/07/25 01:08:20;;;;;;;4.35;3.85;;;;;;;;;;5030361;28;20064;-68
2022/07/25 01:10:47;;;;;;;5.82;3.97;;;;;;;;;;5040335;28;20040;-68
2022/07/25 01:13:13;;;;;;;4.50;4.07;;;;;;;;;;5035547;28;20048;-68
2022/07/25 01:15:39;;;;;;;4.20;3.88;;;;;;;;;;5041079;28;20040;-68
2022/07/25 01:18:05;;;;;;;5.68;4.22;;;;;;;;;;5035017;28;20037;-68
2022/07/25 01:20:32;;;;;;;4.60;4.20;;;;;;;;;;5043056;28;20051;-68
2022/07/25 01:22:58;;;;;;;5.55;4.20;;;;;;;;;;5029421;28;20045;-68
2022/07/25 01:25:25;;;;;;;4.43;4.13;;;;;;;;;;5046407;28;20049;-68
2022/07/25 01:27:52;;;;;;;5.57;4.32;;;;;;;;;;5042046;28;20071;-68
2022/07/25 01:30:18;;;;;;;5.40;4.20;;;;;;;;;;5031460;28;20041;-67
2022/07/25 01:32:44;;;;;;;4.70;4.15;;;;;;;;;;5035081;28;20120;-68
2022/07/25 01:35:11;;;;;;;4.70;4.10;;;;;;;;;;5031444;28;20050;-68
2022/07/25 01:37:37;;;;;;;4.60;4.10;;;;;;;;;;5030538;28;20049;-68
2022/07/25 01:40:03;;;;;;;4.90;4.50;;;;;;;;;;5030764;28;20038;-68
2022/07/25 01:42:29;;;;;;;5.07;4.55;;;;;;;;;;5035958;28;20061;-68
2022/07/25 01:44:56;;;;;;;6.28;4.65;;;;;;;;;;5050057;28;20049;-67
2022/07/25 01:47:22;;;;;;;5.05;4.53;;;;;;;;;;5043252;28;20115;-68
2022/07/25 01:49:48;;;;;;;5.35;4.82;;;;;;;;;;5049551;28;20040;-68
2022/07/25 01:52:14;;;;;;;5.40;4.90;;;;;;;;;;5049801;28;20037;-68
2022/07/25 01:54:40;;;;;;;5.53;5.03;;;;;;;;;;5038726;28;20049;-68
2022/07/25 01:57:07;;;;;;;5.55;5.00;;;;;;;;;;5029153;28;20107;-68
2022/07/25 01:59:36;;;;;;;5.53;5.03;;;;;;;;;;5034177;28;20037;-68
2022/07/25 02:02:02;;;;;;;5.28;4.50;;;;;;;;;;5042958;28;20041;-68
2022/07/25 02:04:28;;;;;;;6.05;4.90;;;;;;;;;;5031696;28;20493;-68
2022/07/25 02:06:54;;;;;;;5.75;4.80;;;;;;;;;;5045768;28;20183;-68
2022/07/25 02:09:20;;;;;;;5.13;4.72;;;;;;;;;;5029594;28;20061;-68
2022/07/25 02:11:46;;;;;;;5.65;5.15;;;;;;;;;;5033974;28;20555;-68
2022/07/25 02:14:12;;;;;;;6.40;5.40;;;;;;;;;;5051793;28;20136;-68
2022/07/25 02:16:38;;;;;;;5.35;4.93;;;;;;;;;;5041359;28;20405;-68
2022/07/25 02:19:04;;;;;;;6.35;4.95;;;;;;;;;;5043744;28;20041;-68
2022/07/25 02:21:30;;;;;;;5.90;5.40;;;;;;;;;;5046046;28;20115;-68
2022/07/25 02:23:56;;;;;;;7.38;5.60;;;;;;;;;;5049301;28;20076;-68
2022/07/25 02:26:22;;;;;;;6.00;5.50;;;;;;;;;;5033926;28;20119;-68
2022/07/25 02:28:49;;;;;;;6.95;6.00;;;;;;;;;;5038211;28;20103;-68
2022/07/25 02:31:15;;;;;;;6.32;5.72;;;;;;;;;;5042412;28;20037;-68
2022/07/25 02:33:41;;;;;;;6.10;5.50;;;;;;;;;;5033321;28;20516;-68
2022/07/25 02:36:07;;;;;;;6.10;5.50;;;;;;;;;;5035065;28;20406;-68
2022/07/25 02:38:34;;;;;;;6.60;5.57;;;;;;;;;;5049588;28;20428;-68
2022/07/25 02:41:00;;;;;;;6.80;6.20;;;;;;;;;;5034068;28;20045;-69
2022/07/25 02:43:26;;;;;;;6.75;6.03;;;;;;;;;;5042052;28;20511;-69
2022/07/25 02:45:52;;;;;;;6.75;5.75;;;;;;;;;;5036973;28;20049;-69
2022/07/25 02:48:18;;;;;;;7.30;6.63;;;;;;;;;;5050995;28;20079;-69
2022/07/25 02:50:44;;;;;;;7.00;6.38;;;;;;;;;;5044883;28;20041;-70
2022/07/25 02:53:10;;;;;;;7.32;6.65;;;;;;;;;;5034544;28;20033;-69
2022/07/25 02:55:36;;;;;;;7.53;6.53;;;;;;;;;;5032305;28;20045;-70
2022/07/25 02:58:02;;;;;;;7.40;6.65;;;;;;;;;;5049649;28;20056;-70
2022/07/25 03:00:29;;;;;;;7.45;6.72;;;;;;;;;;5044890;28;20046;-70
2022/07/25 03:02:55;;;;;;;7.10;6.40;;;;;;;;;;5033635;28;20045;-69
2022/07/25 03:05:21;;;;;;;7.57;6.88;;;;;;;;;;5034130;28;20179;-70
2022/07/25 03:07:47;;;;;;;7.75;7.05;;;;;;;;;;5031767;28;20540;-69
2022/07/25 03:10:13;;;;;;;8.02;7.22;;;;;;;;;;5033315;28;20041;-70
2022/07/25 03:12:40;;;;;;;8.43;7.47;;;;;;;;;;5044888;28;20037;-69
2022/07/25 03:15:06;;;;;;;7.90;7.20;;;;;;;;;;5047856;28;20044;-70
2022/07/25 03:17:32;;;;;;;8.50;7.70;;;;;;;;;;5035043;28;20802;-69
2022/07/25 03:19:58;;;;;;;7.90;7.10;;;;;;;;;;5051087;28;20045;-70
2022/07/25 03:22:25;;;;;;;8.07;7.20;;;;;;;;;;5035011;28;20046;-69
2022/07/25 03:24:52;;;;;;;8.18;7.45;;;;;;;;;;5041537;28;20040;-69
2022/07/25 03:27:18;;;;;;;8.85;7.55;;;;;;;;;;5040785;28;20497;-70
2022/07/25 03:29:45;;;;;;;8.50;7.63;;;;;;;;;;5046824;28;20120;-70
2022/07/25 03:32:11;;;;;;;9.77;7.90;;;;;;;;;;5044817;28;20041;-69
2022/07/25 03:34:37;;;;;;;8.48;7.65;;;;;;;;;;5053720;28;20111;-69
2022/07/25 03:37:03;;;;;;;8.63;7.72;;;;;;;;;;5030551;28;20096;-69
2022/07/25 03:39:29;;;;;;;8.57;7.70;;;;;;;;;;5033147;28;20088;-69
2022/07/25 03:41:55;;;;;;;9.48;7.80;;;;;;;;;;5032152;28;20061;-70
2022/07/25 03:44:22;;;;;;;8.02;7.32;;;;;;;;;;5036553;28;20068;-69
2022/07/25 03:46:48;;;;;;;8.48;7.78;;;;;;;;;;5040044;28;20477;-70
2022/07/25 03:49:14;;;;;;;9.18;8.27;;;;;;;;;;5036532;28;20052;-70
2022/07/25 03:51:40;;;;;;;8.15;7.40;;;;;;;;;;5037958;28;20481;-69
2022/07/25 03:54:07;;;;;;;8.50;7.70;;;;;;;;;;5034514;28;20522;-69
2022/07/25 03:56:38;;;;;;;8.75;7.45;;;;;;;;;;5030718;28;20054;-69
2022/07/25 03:59:07;;;;;;;9.20;7.93;;;;;;;;;;5039510;28;20041;-69
2022/07/25 04:01:34;;;;;;;9.48;8.48;;;;;;;;;;5032886;28;20042;-69
2022/07/25 04:04:01;;;;;;;8.15;7.32;;;;;;;;;;5046569;28;20493;-69
2022/07/25 04:06:27;;;;;;;9.60;8.30;;;;;;;;;;5032303;28;20060;-69
2022/07/25 04:08:54;;;;;;;8.38;7.57;;;;;;;;;;5032918;28;20077;-69
2022/07/25 04:11:21;;;;;;;9.85;8.85;;;;;;;;;;5036434;28;20053;-69
2022/07/25 04:13:50;;;;;;;9.30;8.40;;;;;;;;;;5048805;28;20040;-69
2022/07/25 04:16:17;;;;;;;9.70;8.63;;;;;;;;;;5043765;28;20128;-69
2022/07/25 04:18:43;;;;;;;10.13;9.05;;;;;;;;;;5042515;28;20374;-69
2022/07/25 04:21:11;;;;;;;9.57;8.60;;;;;;;;;;5035201;28;20051;-69
2022/07/25 04:23:38;;;;;;;9.65;8.60;;;;;;;;;;5045347;28;20041;-69
2022/07/25 04:26:04;;;;;;;9.95;8.95;;;;;;;;;;5031104;28;20068;-69
2022/07/25 04:28:31;;;;;;;10.55;9.40;;;;;;;;;;5047661;28;20037;-68
2022/07/25 04:30:57;;;;;;;9.75;8.85;;;;;;;;;;5042484;28;20061;-70
2022/07/25 04:33:23;;;;;;;11.15;9.93;;;;;;;;;;5032630;28;20055;-69
2022/07/25 04:35:49;;;;;;;11.50;10.40;;;;;;;;;;5031163;28;20390;-69
2022/07/25 04:38:15;;;;;;;10.95;9.60;;;;;;;;;;5032042;28;20559;-69
2022/07/25 04:40:42;;;;;;;11.27;9.75;;;;;;;;;;5038394;28;20128;-70
2022/07/25 04:43:08;;;;;;;11.20;10.05;;;;;;;;;;5031592;28;20053;-69
2022/07/25 04:45:34;;;;;;;11.70;10.50;;;;;;;;;;5032337;28;20037;-69
2022/07/25 04:48:00;;;;;;;11.32;10.13;;;;;;;;;;5035523;28;20052;-69
2022/07/25 04:50:27;;;;;;;11.70;10.25;;;;;;;;;;5043478;28;20053;-69
2022/07/25 04:52:53;;;;;;;11.60;10.05;;;;;;;;;;5049237;28;20055;-69
2022/07/25 04:55:19;;;;;;;11.93;10.57;;;;;;;;;;5050862;28;20098;-69
2022/07/25 04:57:46;;;;;;;11.48;10.27;;;;;;;;;;5041578;28;20040;-69
2022/07/25 05:00:12;;;;;;;10.70;9.70;;;;;;;;;;5031449;28;20584;-69
2022/07/25 05:02:38;;;;;;;10.30;9.10;;;;;;;;;;5031001;28;20064;-69
2022/07/25 05:05:05;;;;;;;9.68;8.40;;;;;;;;;;5032687;28;20116;-70
2022/07/25 05:07:31;;;;;;;9.68;8.75;;;;;;;;;;5031455;28;20397;-69
2022/07/25 05:09:57;;;;;;;9.52;8.63;;;;;;;;;;5038073;28;20135;-69
2022/07/25 05:12:23;;;;;;;9.02;8.23;;;;;;;;;;5032303;28;20396;-69
2022/07/25 05:14:49;;;;;;;8.80;7.60;;;;;;;;;;5031448;28;20041;-70
2022/07/25 05:17:15;;;;;;;9.75;8.32;;;;;;;;;;5040809;28;20072;-69
2022/07/25 05:19:41;;;;;;;6.65;5.28;;;;;;;;;;5043010;28;20202;-69
2022/07/25 05:22:07;;;;;;;5.05;4.60;;;;;;;;;;5031887;28;20033;-69
2022/07/25 05:24:34;;;;;;;4.93;3.90;;;;;;;;;;5032018;28;20045;-69
2022/07/25 05:27:00;;;;;;;4.57;3.53;;;;;;;;;;5032249;28;20393;-69
2022/07/25 05:29:26;;;;;;;3.47;3.20;;;;;;;;;;5030149;28;20486;-69
2022/07/25 05:31:52;;;;;;;3.80;3.50;;;;;;;;;;5029805;28;20059;-69
2022/07/25 05:34:18;;;;;;;5.55;3.40;;;;;;;;;;5051689;28;20037;-69
2022/07/25 05:36:44;;;;;;;3.78;3.15;;;;;;;;;;5048163;28;20103;-69
2022/07/25 05:39:10;;;;;;;4.32;3.33;;;;;;;;;;5048132;28;20055;-69
2022/07/25 05:41:37;;;;;;;4.50;3.40;;;;;;;;;;5043534;28;20405;-70
2022/07/25 05:44:03;;;;;;;4.25;3.30;;;;;;;;;;5030795;28;20077;-69
2022/07/25 05:46:31;;;;;;;4.40;3.70;;;;;;;;;;5035412;28;20120;-69
2022/07/25 05:48:57;;;;;;;3.85;3.42;;;;;;;;;;5033167;28;20049;-69
2022/07/25 05:51:23;;;;;;;4.40;3.45;;;;;;;;;;5031285;28;20049;-69
2022/07/25 05:53:49;;;;;;;4.68;3.50;;;;;;;;;;5033932;28;20049;-69
2022/07/25 05:56:15;;;;;;;4.30;3.90;;;;;;;;;;5033473;28;20041;-69
2022/07/25 05:58:41;;;;;;;6.68;3.80;;;;;;;;;;5034252;28;20571;-69
2022/07/25 06:01:08;;;;;;;4.15;3.35;;;;;;;;;;5034304;28;20045;-69
2022/07/25 06:03:34;;;;;;;6.50;3.38;;;;;;;;;;5042108;28;20124;-69
2022/07/25 06:06:00;;;;;;;3.25;2.95;;;;;;;;;;5045096;28;20049;-68
2022/07/25 06:08:29;;;;;;;3.65;2.92;;;;;;;;;;5045051;28;20040;-68
2022/07/25 06:10:57;;;;;;;4.85;2.97;;;;;;;;;;5053232;28;20049;-68
2022/07/25 06:13:23;;;;;;;4.18;3.10;;;;;;;;;;5045533;28;20042;-68
2022/07/25 06:15:49;;;;;;;4.22;3.35;;;;;;;;;;5035558;28;20128;-69
2022/07/25 06:18:15;;;;;;;3.65;3.00;;;;;;;;;;5033278;28;20053;-68
2022/07/25 06:20:41;;;;;;;4.38;2.75;;;;;;;;;;5038203;28;20049;-69
2022/07/25 06:23:07;;;;;;;6.10;2.50;;;;;;;;;;5035129;28;20536;-68
2022/07/25 06:25:33;;;;;;;2.92;2.60;;;;;;;;;;5046214;28;20037;-69
2022/07/25 06:27:59;;;;;;;3.47;2.58;;;;;;;;;;5035825;28;20045;-68
2022/07/25 06:30:26;;;;;;;4.53;3.08;;;;;;;;;;5049387;28;20045;-68
2022/07/25 06:32:52;;;;;;;3.83;2.80;;;;;;;;;;5053254;28;20509;-68
2022/07/25 06:35:18;;;;;;;3.45;2.28;;;;;;;;;;5044520;28;20038;-68
2022/07/25 06:37:44;;;;;;;2.65;2.25;;;;;;;;;;5034859;28;20080;-68
2022/07/25 06:40:10;;;;;;;3.58;2.55;;;;;;;;;;5034666;28;20073;-68
2022/07/25 06:42:40;;;;;;;2.50;2.20;;;;;;;;;;5034430;28;20058;-69
2022/07/25 06:45:08;;;;;;;1.98;1.80;;;;;;;;;;5034943;28;20041;-68
2022/07/25 06:47:34;;;;;;;5.05;2.35;;;;;;;;;;5032257;28;20053;-69
2022/07/25 06:50:00;;;;;;;5.07;2.33;;;;;;;;;;5035092;28;20132;-68
2022/07/25 06:52:26;;;;;;;3.05;2.30;;;;;;;;;;5044832;28;20124;-68
2022/07/25 06:54:52;;;;;;;4.90;2.40;;;;;;;;;;5053954;28;20128;-68
2022/07/25 06:57:18;;;;;;;3.90;2.17;;;;;;;;;;5045294;28;20588;-68
2022/07/25 06:59:44;;;;;;;6.80;2.35;;;;;;;;;;5034028;28;20111;-68
2022/07/25 07:02:11;;;;;;;4.53;2.47;;;;;;;;;;5048092;28;20051;-68
2022/07/25 07:04:37;;;;;;;3.15;1.83;;;;;;;;;;5042711;28;20068;-69
2022/07/25 07:07:03;;;;;;;3.42;2.20;;;;;;;;;;5033869;28;20081;-68
2022/07/25 07:09:30;;;;;;;4.55;2.20;;;;;;;;;;5034783;28;20084;-68
2022/07/25 07:11:56;;;;;;;3.47;2.30;;;;;;;;;;5033849;28;20048;-68
2022/07/25 07:14:22;;;;;;;3.50;2.30;;;;;;;;;;5034108;28;20099;-68
2022/07/25 07:16:48;;;;;;;2.58;2.15;;;;;;;;;;5034337;28;20037;-68
2022/07/25 07:19:14;;;;;;;3.03;2.20;;;;;;;;;;5042795;28;20102;-68
2022/07/25 07:21:40;;;;;;;3.72;2.10;;;;;;;;;;5036242;28;20044;-68
2022/07/25 07:24:06;;;;;;;3.47;2.10;;;;;;;;;;5038178;28;20042;-68
2022/07/25 07:26:33;;;;;;;2.97;1.98;;;;;;;;;;5034137;28;20381;-69
2022/07/25 07:28:59;;;;;;;2.60;2.22;;;;;;;;;;5040061;28;20037;-68
2022/07/25 07:31:25;;;;;;;3.25;2.00;;;;;;;;;;5051790;28;20397;-68
2022/07/25 07:33:51;;;;;;;3.72;2.38;;;;;;;;;;5036705;28;20906;-69
2022/07/25 07:36:17;;;;;;;3.40;2.10;;;;;;;;;;5033436;28;20370;-68
2022/07/25 07:38:43;;;;;;;4.57;2.30;;;;;;;;;;5047653;28;20049;-69
2022/07/25 07:41:10;;;;;;;4.80;2.22;;;;;;;;;;5048824;28;20065;-69
2022/07/25 07:43:36;;;;;;;4.32;2.20;;;;;;;;;;5033215;28;20049;-69
2022/07/25 07:46:02;;;;;;;3.67;2.08;;;;;;;;;;5033940;28;20056;-69
2022/07/25 07:48:31;;;;;;;5.30;2.20;;;;;;;;;;5050259;28;20123;-68
2022/07/25 07:50:58;;;;;;;3.97;2.30;;;;;;;;;;5036635;28;20059;-68
2022/07/25 07:56:09;;;;;;;4.13;2.22;;;;;;;;;;5051754;28;20052;-68
2022/07/25 07:58:35;;;;;;;3.97;2.20;;;;;;;;;;5048650;28;20128;-68
2022/07/25 08:01:01;;;;;;;3.97;2.10;;;;;;;;;;5033767;28;20041;-68
2022/07/25 08:03:27;;;;;;;5.65;2.53;;;;;;;;;;5032456;28;20056;-68
2022/07/25 08:05:53;;;;;;;3.55;2.05;;;;;;;;;;5033382;28;20447;-68
2022/07/25 08:08:19;;;;;;;4.78;2.25;;;;;;;;;;5033860;28;20084;-68
2022/07/25 08:10:46;;;;;;;3.75;2.38;;;;;;;;;;5031051;28;20061;-68
2022/07/25 08:13:13;;;;;;;3.50;2.28;;;;;;;;;;5049190;28;20048;-68
2022/07/25 08:15:39;;;;;;;5.35;2.38;;;;;;;;;;5049107;28;20153;-69
2022/07/25 08:18:05;;;;;;;3.85;2.17;;;;;;;;;;5031457;28;20057;-68
2022/07/25 08:20:31;;;;;;;10.10;2.83;;;;;;;;;;5033201;28;20046;-69
2022/07/25 08:22:57;;;;;;;3.17;2.00;;;;;;;;;;5049626;28;20059;-68
2022/07/25 08:25:23;;;;;;;6.35;2.72;;;;;;;;;;5051264;28;20041;-69
2022/07/25 08:27:50;;;;;;;7.25;2.70;;;;;;;;;;5052794;28;20045;-68
2022/07/25 08:30:16;;;;;;;5.32;2.42;;;;;;;;;;5034760;28;20614;-68
2022/07/25 08:32:56;;;;;;;8.13;3.10;;;;;;;;;;5030915;28;20409;-69
2022/07/25 08:35:23;;;;;;;7.28;2.88;;;;;;;;;;5031957;28;20060;-68
2022/07/25 08:37:49;;;;;;;7.15;2.95;;;;;;;;;;5030732;28;20053;-68
2022/07/25 08:40:16;;;;;;;4.57;2.60;;;;;;;;;;5032347;28;20245;-68
2022/07/25 08:42:42;;;;;;;5.75;2.80;;;;;;;;;;5045663;28;20057;-68
2022/07/25 08:45:09;;;;;;;4.07;2.53;;;;;;;;;;5033741;28;20068;-69
2022/07/25 08:47:36;;;;;;;6.50;2.88;;;;;;;;;;5049050;28;20048;-69
2022/07/25 08:50:04;;;;;;;6.88;2.55;;;;;;;;;;5032944;28;20045;-69
2022/07/25 08:52:30;;;;;;;8.70;2.90;;;;;;;;;;5031841;28;20037;-69
2022/07/25 08:54:57;;;;;;;5.63;2.15;;;;;;;;;;5049732;28;20041;-68
2022/07/25 08:57:23;;;;;;;7.38;2.88;;;;;;;;;;5031458;28;20041;-68
2022/07/25 08:59:49;;;;;;;7.03;2.75;;;;;;;;;;5031860;28;20351;-69
2022/07/25 09:02:15;;;;;;;5.05;2.50;;;;;;;;;;5041553;28;20139;-69
2022/07/25 09:04:42;;;;;;;8.93;3.05;;;;;;;;;;5050539;28;20052;-69
2022/07/25 09:07:08;;;;;;;5.47;2.80;;;;;;;;;;5035972;28;20053;-68
2022/07/25 09:09:35;;;;;;;6.88;3.15;;;;;;;;;;5031737;28;20057;-68
2022/07/25 09:12:02;;;;;;;8.15;3.35;;;;;;;;;;5035716;28;20099;-68
2022/07/25 09:14:28;;;;;;;5.45;3.13;;;;;;;;;;5049916;28;20045;-68
2022/07/25 09:16:55;;;;;;;8.00;2.97;;;;;;;;;;5038942;28;20044;-68
2022/07/25 09:19:21;;;;;;;8.68;2.92;;;;;;;;;;5031295;28;20099;-68
2022/07/25 09:22:01;;;;;;;6.82;2.80;;;;;;;;;;5030276;28;20103;-68
2022/07/25 09:24:27;;;;;;;7.90;2.90;;;;;;;;;;5032075;28;20145;-68
2022/07/25 09:26:55;;;;;;;7.05;3.00;;;;;;;;;;5046723;28;20048;-68
2022/07/25 09:29:21;;;;;;;6.70;2.90;;;;;;;;;;5050119;28;20120;-68
2022/07/25 09:31:47;;;;;;;10.43;3.30;;;;;;;;;;5050198;28;20087;-68
2022/07/25 09:34:16;;;;;;;6.95;3.00;;;;;;;;;;5042533;28;20378;-68
2022/07/25 09:36:55;;;;;;;8.05;2.90;;;;;;;;;;5032337;28;20389;-68
2022/07/25 09:39:21;;;;;;;7.97;3.08;;;;;;;;;;5031552;28;20124;-68
2022/07/25 09:41:48;;;;;;;7.25;2.92;;;;;;;;;;5029498;28;20144;-69
2022/07/25 09:44:18;;;;;;;10.15;3.40;;;;;;;;;;5032115;28;20042;-69
2022/07/25 09:46:44;;;;;;;5.80;2.70;;;;;;;;;;5029982;28;20136;-68
2022/07/25 09:49:13;;;;;;;6.38;2.70;;;;;;;;;;5031230;28;20045;-68
2022/07/25 09:51:39;;;;;;;11.85;2.92;;;;;;;;;;5031265;28;20095;-68
2022/07/25 09:54:05;;;;;;;9.07;2.90;;;;;;;;;;5031242;28;20197;-68
2022/07/25 09:56:34;;;;;;;13.77;3.20;;;;;;;;;;5030166;28;20061;-69
2022/07/25 09:59:00;;;;;;;13.27;3.40;;;;;;;;;;5031994;28;20056;-68
2022/07/25 10:01:28;;;;;;;7.82;2.78;;;;;;;;;;5031765;28;20053;-69
2022/07/25 10:04:03;;;;;;;6.70;2.53;;;;;;;;;;5030632;28;20560;-68
2022/07/25 10:06:48;;;;;;;8.65;2.65;;;;;;;;;;5030419;28;20132;-68
2022/07/25 10:09:15;;;;;;;11.50;3.05;;;;;;;;;;5030512;28;20072;-69
2022/07/25 10:12:01;;;;;;;9.10;2.83;;;;;;;;;;5038873;28;20043;-68
2022/07/25 10:14:27;;;;;;;8.93;3.00;;;;;;;;;;5032345;28;20045;-68
2022/07/25 10:16:53;;;;;;;8.52;2.65;;;;;;;;;;5034911;28;20048;-69
2022/07/25 10:19:34;;;;;;;8.13;2.80;;;;;;;;;;5051188;28;20446;-68
2022/07/25 10:22:00;;;;;;;8.73;2.88;;;;;;;;;;5050905;28;20049;-69
2022/07/25 10:24:32;;;;;;;6.50;3.15;;;;;;;;;;5039616;28;20049;-68
2022/07/25 10:27:06;;;;;;;8.32;2.97;;;;;;;;;;5049798;28;20049;-68
2022/07/25 10:29:33;;;;;;;6.00;2.63;;;;;;;;;;5051139;28;20048;-69
2022/07/25 10:32:05;;;;;;;9.82;3.00;;;;;;;;;;5039917;28;20060;-68
2022/07/25 10:34:31;;;;;;;7.25;3.03;;;;;;;;;;5031712;28;20054;-69
2022/07/25 10:37:08;;;;;;;8.10;2.95;;;;;;;;;;5031615;28;20432;-68
2022/07/25 10:39:41;;;;;;;10.30;4.13;;;;;;;;;;5037691;28;20053;-69
2022/07/25 10:42:12;;;;;;;8.20;3.03;;;;;;;;;;5037512;28;20479;-68
2022/07/25 10:44:42;;;;;;;8.63;4.68;;;;;;;;;;5034713;28;20057;-69
2022/07/25 10:47:10;;;;;;;8.40;3.45;;;;;;;;;;5052104;28;20072;-68
2022/07/25 10:49:36;;;;;;;6.72;3.15;;;;;;;;;;5034643;28;20120;-69
2022/07/25 10:52:03;;;;;;;6.68;2.72;;;;;;;;;;5033049;28;20172;-68
2022/07/25 10:54:37;;;;;;;6.80;2.95;;;;;;;;;;5037254;28;20041;-68
2022/07/25 10:57:03;;;;;;;6.05;3.00;;;;;;;;;;5054903;28;20045;-69
2022/07/25 10:59:32;;;;;;;8.70;2.90;;;;;;;;;;5035845;28;20539;-68
2022/07/25 11:01:59;;;;;;;4.20;2.63;;;;;;;;;;5034144;28;20055;-70
2022/07/25 11:04:25;;;;;;;9.27;2.63;;;;;;;;;;5034468;28;20481;-68
2022/07/25 11:06:51;;;;;;;6.22;2.97;;;;;;;;;;5033574;28;20156;-69
2022/07/25 11:09:21;;;;;;;4.78;2.90;;;;;;;;;;5034167;28;20176;-68
2022/07/25 11:11:48;;;;;;;6.00;2.80;;;;;;;;;;5034536;28;20512;-68
2022/07/25 11:14:25;;;;;;;7.32;2.80;;;;;;;;;;5033791;28;20041;-68
2022/07/25 11:16:52;;;;;;;8.15;3.00;;;;;;;;;;5039237;28;20543;-69
2022/07/25 11:19:19;;;;;;;7.28;2.75;;;;;;;;;;5032834;28;20103;-68
2022/07/25 11:22:07;;;;;;;9.98;3.35;;;;;;;;;;5033156;28;20412;-68
2022/07/25 11:24:41;;;;;;;9.27;3.03;;;;;;;;;;5032646;28;20392;-69
2022/07/25 11:27:08;;;;;;;8.07;3.25;;;;;;;;;;5037969;28;20041;-69
2022/07/25 11:29:34;;;;;;;7.90;2.80;;;;;;;;;;5036733;28;20048;-69
2022/07/25 11:32:05;;;;;;;11.23;3.58;;;;;;;;;;5033518;28;20099;-68
2022/07/25 11:34:33;;;;;;;8.52;2.88;;;;;;;;;;5030895;28;20121;-68
2022/07/25 11:37:01;;;;;;;7.38;3.17;;;;;;;;;;5054151;28;20396;-68
2022/07/25 11:39:28;;;;;;;12.35;3.30;;;;;;;;;;5051958;28;20045;-68
2022/07/25 11:42:07;;;;;;;9.10;3.38;;;;;;;;;;5052737;28;20057;-68
2022/07/25 11:44:41;;;;;;;9.75;3.40;;;;;;;;;;5041741;28;20065;-69
2022/07/25 11:47:08;;;;;;;12.50;3.58;;;;;;;;;;5049272;28;20433;-69
2022/07/25 11:49:44;;;;;;;6.68;3.00;;;;;;;;;;5032565;28;20076;-69
2022/07/25 11:52:20;;;;;;;9.55;3.20;;;;;;;;;;5044045;28;20057;-68
2022/07/25 11:54:50;;;;;;;13.90;4.00;;;;;;;;;;5031887;28;20488;-69
2022/07/25 11:57:20;;;;;;;12.02;3.50;;;;;;;;;;5034019;28;20045;-69
2022/07/25 11:59:46;;;;;;;8.05;3.13;;;;;;;;;;5032282;28;20052;-68
2022/07/25 12:02:20;;;;;;;5.40;2.70;;;;;;;;;;5040488;28;20143;-69
2022/07/25 12:04:53;;;;;;;5.95;3.00;;;;;;;;;;5033549;28;20069;-69
2022/07/25 12:07:19;;;;;;;7.07;3.40;;;;;;;;;;5033271;28;20052;-69
2022/07/25 12:09:54;;;;;;;11.15;3.83;;;;;;;;;;5032813;28;20038;-69
2022/07/25 12:12:20;;;;;;;10.95;3.50;;;;;;;;;;5033741;28;20137;-69
2022/07/25 12:14:46;;;;;;;12.90;3.40;;;;;;;;;;5032178;28;20136;-69
2022/07/25 12:17:12;;;;;;;11.20;3.90;;;;;;;;;;5036268;28;20477;-68
2022/07/25 12:19:39;;;;;;;6.75;3.15;;;;;;;;;;5036226;28;20054;-69
2022/07/25 12:22:05;;;;;;;12.00;3.53;;;;;;;;;;5035117;28;20041;-68
2022/07/25 12:24:31;;;;;;;8.65;3.67;;;;;;;;;;5032444;28;20493;-69
2022/07/25 12:26:57;;;;;;;8.65;3.60;;;;;;;;;;5032946;28;20131;-69
2022/07/25 12:29:23;;;;;;;10.02;3.90;;;;;;;;;;5033446;28;20084;-68
2022/07/25 12:31:49;;;;;;;11.65;4.28;;;;;;;;;;5030711;28;20122;-69
2022/07/25 12:34:15;;;;;;;6.72;3.28;;;;;;;;;;5032916;28;20041;-69
2022/07/25 12:36:43;;;;;;;9.73;3.40;;;;;;;;;;5037254;28;20056;-68
2022/07/25 12:39:09;;;;;;;6.95;3.40;;;;;;;;;;5032211;28;20060;-68
2022/07/25 12:41:35;;;;;;;10.38;3.50;;;;;;;;;;5031395;28;20049;-69
2022/07/25 12:44:03;;;;;;;10.35;3.45;;;;;;;;;;5032393;28;20131;-69
2022/07/25 12:46:29;;;;;;;6.55;3.38;;;;;;;;;;5030567;28;20505;-70
2022/07/25 12:48:56;;;;;;;7.47;3.20;;;;;;;;;;5033789;28;20457;-69
2022/07/25 12:51:22;;;;;;;8.30;3.30;;;;;;;;;;5051845;28;20068;-69
2022/07/25 12:53:48;;;;;;;12.10;4.10;;;;;;;;;;5052511;28;20045;-69
2022/07/25 12:56:14;;;;;;;8.18;3.55;;;;;;;;;;5035128;28;20048;-68
2022/07/25 12:58:40;;;;;;;5.78;3.20;;;;;;;;;;5034447;28;20044;-68
2022/07/25 13:01:06;;;;;;;8.98;4.07;;;;;;;;;;5047012;28;20127;-69
2022/07/25 13:03:32;;;;;;;10.00;3.58;;;;;;;;;;5051286;28;20076;-69
2022/07/25 13:05:58;;;;;;;11.75;3.95;;;;;;;;;;5051623;28;20088;-68
2022/07/25 13:08:24;;;;;;;7.50;3.30;;;;;;;;;;5037470;28;20132;-69
2022/07/25 13:10:50;;;;;;;9.35;3.38;;;;;;;;;;5038425;28;20040;-68
2022/07/25 13:13:16;;;;;;;11.90;3.30;;;;;;;;;;5043961;28;20041;-68
2022/07/25 13:15:42;;;;;;;9.23;3.40;;;;;;;;;;5038457;28;20090;-69
2022/07/25 13:18:08;;;;;;;9.88;3.22;;;;;;;;;;5041772;28;20496;-69
2022/07/25 13:20:36;;;;;;;8.45;3.20;;;;;;;;;;5044816;28;20045;-69
2022/07/25 13:23:02;;;;;;;12.63;3.55;;;;;;;;;;5031023;28;20045;-69
2022/07/25 13:25:28;;;;;;;6.13;2.92;;;;;;;;;;5048918;28;20045;-69
2022/07/25 13:27:54;;;;;;;8.02;3.25;;;;;;;;;;5049727;28;20080;-69
2022/07/25 13:30:20;;;;;;;8.40;3.10;;;;;;;;;;5047651;28;20077;-69
2022/07/25 13:32:46;;;;;;;10.57;3.50;;;;;;;;;;5031707;28;20521;-69
2022/07/25 13:35:12;;;;;;;8.52;3.47;;;;;;;;;;5030053;28;20080;-68
2022/07/25 13:37:38;;;;;;;8.35;2.97;;;;;;;;;;5037174;28;20045;-69
2022/07/25 13:40:05;;;;;;;6.35;3.22;;;;;;;;;;5044347;28;20048;-66
2022/07/25 13:42:31;;;;;;;10.00;3.78;;;;;;;;;;5030193;28;20061;-66
2022/07/25 13:44:57;;;;;;;7.57;3.20;;;;;;;;;;5031497;28;20132;-66
2022/07/25 13:47:23;;;;;;;8.85;3.30;;;;;;;;;;5035323;28;20120;-66
2022/07/25 13:49:49;;;;;;;6.63;3.17;;;;;;;;;;5042360;28;20041;-67
2022/07/25 13:52:15;;;;;;;7.15;3.13;;;;;;;;;;5030380;28;20080;-66
2022/07/25 13:54:42;;;;;;;8.35;3.40;;;;;;;;;;5030837;28;20046;-67
2022/07/25 13:57:08;;;;;;;6.28;2.90;;;;;;;;;;5031968;28;20045;-66
2022/07/25 13:59:34;;;;;;;8.80;3.00;;;;;;;;;;5047505;28;20041;-67
2022/07/25 14:02:00;;;;;;;13.50;3.38;;;;;;;;;;5046240;28;20049;-67
2022/07/25 14:04:26;;;;;;;6.05;2.63;;;;;;;;;;5030451;28;20045;-67
2022/07/25 14:06:52;;;;;;;9.88;3.15;;;;;;;;;;5030060;28;20053;-66
2022/07/25 14:09:19;;;;;;;8.50;3.58;;;;;;;;;;5030018;28;20424;-66
2022/07/25 14:11:45;;;;;;;7.13;3.05;;;;;;;;;;5031624;28;20060;-67
2022/07/25 14:14:11;;;;;;;9.70;3.65;;;;;;;;;;5044197;28;20053;-66
2022/07/25 14:16:37;;;;;;;11.90;4.40;;;;;;;;;;5053010;28;20045;-67
2022/07/25 14:19:03;;;;;;;7.53;3.30;;;;;;;;;;5044601;28;20045;-67
2022/07/25 14:21:29;;;;;;;11.45;3.63;;;;;;;;;;5049515;28;20052;-66
2022/07/25 14:23:55;;;;;;;9.10;3.15;;;;;;;;;;5050911;28;20052;-67
2022/07/25 14:26:22;;;;;;;6.10;2.90;;;;;;;;;;5042138;28;20049;-66
2022/07/25 14:28:48;;;;;;;4.82;2.63;;;;;;;;;;5054832;28;20049;-67
2022/07/25 14:31:14;;;;;;;8.50;2.60;;;;;;;;;;5054548;28;20045;-66
2022/07/25 14:33:40;;;;;;;8.05;2.88;;;;;;;;;;5046313;28;20060;-67
2022/07/25 14:36:06;;;;;;;9.05;2.50;;;;;;;;;;5035346;28;20075;-66
2022/07/25 14:38:32;;;;;;;5.72;2.50;;;;;;;;;;5033933;28;20044;-66
2022/07/25 14:40:59;;;;;;;6.30;2.83;;;;;;;;;;5038443;28;20413;-67